Time;durP1;ratioP1;P1;durP2;ratioP2;P2;SDS_P1;SDS_P2;PMS_P1;PMS_P2;Temp;Humidity;BMP_temperature;BMP_pressure;BME280_temperature;BME280_humidity;BME280_pressure;Samples;Min_cycle;Max_cycle;Signal;HPM_P1;HPM_P2
2022/05/13 00:00:27;;;;;;;4.57;4.27;;;19.90;99.90;;;;;;5050541;28;20201;-54
2022/05/13 00:02:54;;;;;;;3.47;3.17;;;19.80;99.90;;;;;;5048784;28;20225;-54
2022/05/13 00:05:22;;;;;;;3.80;3.50;;;19.80;99.90;;;;;;5050522;28;20725;-54
2022/05/13 00:07:49;;;;;;;4.23;3.90;;;19.80;99.90;;;;;;5051237;28;20671;-55
2022/05/13 00:10:16;;;;;;;3.70;3.50;;;19.80;99.90;;;;;;5049568;28;20223;-55
2022/05/13 00:12:43;;;;;;;3.40;3.20;;;19.90;99.90;;;;;;5050094;28;20271;-54
2022/05/13 00:15:18;;;;;;;3.23;2.77;;;19.80;99.90;;;;;;5048892;28;20201;-54
2022/05/13 00:17:47;;;;;;;3.43;3.23;;;20.10;99.90;;;;;;5050894;28;20235;-54
2022/05/13 00:20:16;;;;;;;3.97;3.77;;;20.10;99.90;;;;;;5050136;28;20621;-55
2022/05/13 00:22:45;;;;;;;5.37;4.00;;;20.10;99.90;;;;;;5050925;28;20233;-54
2022/05/13 00:25:15;;;;;;;3.93;3.63;;;20.00;99.90;;;;;;5051267;28;20209;-54
2022/05/13 00:27:43;;;;;;;3.97;3.77;;;20.00;99.90;;;;;;5049196;28;20213;-55
2022/05/13 00:30:12;;;;;;;4.03;3.73;;;20.00;99.90;;;;;;5050558;28;20202;-54
2022/05/13 00:32:41;;;;;;;4.80;3.47;;;20.20;99.90;;;;;;5048862;28;20271;-54
2022/05/13 00:35:09;;;;;;;3.80;3.50;;;20.10;99.90;;;;;;5047762;28;20197;-54
2022/05/13 00:37:36;;;;;;;4.10;3.53;;;20.00;99.90;;;;;;5049567;28;20263;-54
2022/05/13 00:40:04;;;;;;;3.87;3.67;;;20.00;99.90;;;;;;5048874;28;20251;-54
2022/05/13 00:42:31;;;;;;;3.77;3.47;;;20.10;99.90;;;;;;5050412;28;20255;-54
2022/05/13 00:44:58;;;;;;;3.63;3.33;;;20.10;99.90;;;;;;5073918;22;20650;-48
2022/05/13 00:47:27;;;;;;;3.50;3.27;;;20.10;99.90;;;;;;5050737;28;20255;-48
2022/05/13 00:49:56;;;;;;;3.40;3.07;;;20.20;99.90;;;;;;5051128;28;20259;-47
2022/05/13 00:52:24;;;;;;;3.60;3.33;;;20.10;99.90;;;;;;5047078;28;20205;-48
2022/05/13 00:54:51;;;;;;;3.37;3.27;;;20.20;99.90;;;;;;5051024;28;20759;-48
2022/05/13 00:57:18;;;;;;;3.27;3.17;;;20.10;99.90;;;;;;5051360;28;20206;-48
2022/05/13 00:59:48;;;;;;;3.43;3.23;;;20.10;99.90;;;;;;5051284;28;20201;-48
2022/05/13 01:02:15;;;;;;;4.07;3.67;;;20.00;99.90;;;;;;5051298;28;20255;-48
2022/05/13 01:04:45;;;;;;;3.60;3.30;;;20.10;99.90;;;;;;5048049;28;20225;-47
2022/05/13 01:07:18;;;;;;;3.70;2.57;;;20.20;99.90;;;;;;5042812;28;20202;-48
2022/05/13 01:09:48;;;;;;;2.77;2.60;;;20.10;99.90;;;;;;5050433;28;20672;-48
2022/05/13 01:12:19;;;;;;;2.37;2.27;;;20.00;99.90;;;;;;5051202;28;20259;-48
2022/05/13 01:14:51;;;;;;;3.70;3.00;;;20.10;99.90;;;;;;5051312;28;20240;-47
2022/05/13 01:20:12;;;;;;;2.63;2.43;;;20.10;99.90;;;;;;5049990;28;20574;-48
2022/05/13 01:22:46;;;;;;;2.77;2.67;;;20.00;99.90;;;;;;5050701;28;20251;-47
2022/05/13 01:25:16;;;;;;;3.87;3.27;;;19.90;99.90;;;;;;5047915;28;20221;-48
2022/05/13 01:27:44;;;;;;;2.93;2.83;;;19.90;99.90;;;;;;5049297;28;20643;-48
2022/05/13 01:30:15;;;;;;;3.13;2.70;;;19.80;99.90;;;;;;5041697;28;20197;-47
2022/05/13 01:32:42;;;;;;;3.33;3.13;;;19.80;99.90;;;;;;5054701;28;20255;-47
2022/05/13 01:35:10;;;;;;;3.60;3.30;;;19.70;99.90;;;;;;5054495;28;20226;-48
2022/05/13 01:37:38;;;;;;;4.63;3.00;;;19.60;99.90;;;;;;5052746;28;20284;-48
2022/05/13 01:40:08;;;;;;;3.10;3.00;;;19.50;99.90;;;;;;5054348;28;20202;-48
2022/05/13 01:42:35;;;;;;;3.90;3.47;;;19.50;99.90;;;;;;5050502;28;20228;-48
2022/05/13 01:45:02;;;;;;;3.70;3.50;;;19.40;99.90;;;;;;5054090;28;20645;-48
2022/05/13 01:47:30;;;;;;;3.70;3.40;;;19.30;99.90;;;;;;5051699;28;20260;-48
2022/05/13 01:49:57;;;;;;;3.77;3.57;;;19.40;99.90;;;;;;5054238;28;20248;-48
2022/05/13 01:52:24;;;;;;;3.37;3.27;;;19.40;99.90;;;;;;5053125;28;20201;-48
2022/05/13 01:54:52;;;;;;;4.00;3.60;;;19.40;99.90;;;;;;5050461;28;20257;-48
2022/05/13 01:57:20;;;;;;;5.70;4.43;;;19.40;99.90;;;;;;5054141;28;20228;-47
2022/05/13 01:59:47;;;;;;;4.87;4.57;;;19.30;99.90;;;;;;5054249;28;20206;-48
2022/05/13 02:02:14;;;;;;;4.00;3.70;;;19.30;99.90;;;;;;5053885;28;20201;-48
2022/05/13 02:04:40;;;;;;;5.13;4.27;;;19.30;99.90;;;;;;5054000;28;20225;-48
2022/05/13 02:07:07;;;;;;;4.03;3.83;;;19.30;99.90;;;;;;5050951;28;20244;-48
2022/05/13 02:09:34;;;;;;;5.30;4.37;;;19.20;99.90;;;;;;5052261;28;20198;-48
2022/05/13 02:12:01;;;;;;;4.57;4.27;;;19.20;99.90;;;;;;5053671;28;20202;-48
2022/05/13 02:14:29;;;;;;;5.53;4.47;;;19.10;99.90;;;;;;5052346;28;20276;-48
2022/05/13 02:16:56;;;;;;;4.40;4.10;;;18.90;99.90;;;;;;5051290;28;20201;-48
2022/05/13 02:19:23;;;;;;;4.33;4.13;;;18.80;99.90;;;;;;5053872;28;20584;-48
2022/05/13 02:21:50;;;;;;;5.20;4.80;;;18.80;99.90;;;;;;5051535;28;20244;-48
2022/05/13 02:24:17;;;;;;;5.07;4.67;;;18.70;99.90;;;;;;5051537;28;20283;-48
2022/05/13 02:26:44;;;;;;;4.77;4.40;;;18.70;99.90;;;;;;5051544;28;20259;-48
2022/05/13 02:29:11;;;;;;;4.83;4.57;;;18.60;99.90;;;;;;5045609;28;20205;-48
2022/05/13 02:31:39;;;;;;;4.03;3.73;;;18.60;99.90;;;;;;5053297;28;20252;-48
2022/05/13 02:34:06;;;;;;;4.63;4.43;;;18.60;99.90;;;;;;5051272;28;20642;-48
2022/05/13 02:36:33;;;;;;;4.20;3.83;;;18.60;99.90;;;;;;5053570;28;20206;-47
2022/05/13 02:39:00;;;;;;;4.23;4.03;;;18.60;99.90;;;;;;5053428;28;20248;-48
2022/05/13 02:41:27;;;;;;;3.97;3.77;;;18.60;99.90;;;;;;5053097;28;20252;-48
2022/05/13 02:43:56;;;;;;;4.13;3.83;;;18.60;99.90;;;;;;5052065;28;20691;-48
2022/05/13 02:46:24;;;;;;;4.20;3.77;;;18.60;99.90;;;;;;5052583;28;20324;-48
2022/05/13 02:48:53;;;;;;;4.90;4.47;;;18.60;99.90;;;;;;5053380;28;20198;-48
2022/05/13 02:51:21;;;;;;;3.77;3.43;;;18.60;99.90;;;;;;5053194;28;20210;-48
2022/05/13 02:53:48;;;;;;;3.80;3.60;;;18.60;99.90;;;;;;5053185;28;20731;-49
2022/05/13 02:56:15;;;;;;;3.80;3.60;;;18.50;99.90;;;;;;5053148;28;20688;-48
2022/05/13 02:58:42;;;;;;;4.37;4.17;;;18.50;99.90;;;;;;5049545;28;20256;-48
2022/05/13 03:01:12;;;;;;;4.43;4.23;;;18.50;99.90;;;;;;5052900;28;20201;-48
2022/05/13 03:03:41;;;;;;;4.93;3.73;;;18.40;99.90;;;;;;5052868;28;20222;-48
2022/05/13 03:06:10;;;;;;;5.40;4.90;;;18.40;99.90;;;;;;5052306;28;20210;-48
2022/05/13 03:08:37;;;;;;;8.33;4.53;;;18.30;99.90;;;;;;5052778;28;20667;-48
2022/05/13 03:11:06;;;;;;;7.33;4.93;;;18.20;99.90;;;;;;5050432;28;20210;-48
2022/05/13 03:13:34;;;;;;;5.60;5.30;;;18.20;99.90;;;;;;5052715;28;20225;-48
2022/05/13 03:16:06;;;;;;;4.50;4.30;;;18.10;99.90;;;;;;5051857;28;20198;-48
2022/05/13 03:18:33;;;;;;;5.07;4.77;;;18.10;99.90;;;;;;5052816;28;20276;-48
2022/05/13 03:21:00;;;;;;;5.50;5.20;;;18.10;99.90;;;;;;5052749;28;20213;-48
2022/05/13 03:23:29;;;;;;;4.93;4.57;;;18.10;99.90;;;;;;5051285;28;20222;-48
2022/05/13 03:25:56;;;;;;;5.70;5.30;;;18.10;99.90;;;;;;5052695;28;20198;-47
2022/05/13 03:28:23;;;;;;;5.30;4.80;;;18.10;99.90;;;;;;5051685;28;20206;-48
2022/05/13 03:30:51;;;;;;;6.20;5.60;;;18.10;99.90;;;;;;5050295;28;20611;-48
2022/05/13 03:33:19;;;;;;;6.43;5.90;;;18.10;99.90;;;;;;5051438;28;20234;-48
2022/05/13 03:35:46;;;;;;;5.63;5.33;;;18.10;99.90;;;;;;5049943;28;20202;-48
2022/05/13 03:38:13;;;;;;;5.87;5.47;;;18.10;99.90;;;;;;5050616;28;20260;-48
2022/05/13 03:40:42;;;;;;;5.77;5.30;;;18.10;99.90;;;;;;5052386;28;20194;-48
2022/05/13 03:43:09;;;;;;;6.00;5.47;;;18.10;99.90;;;;;;5050742;28;20198;-47
2022/05/13 03:45:36;;;;;;;6.40;5.93;;;18.00;99.90;;;;;;5052129;28;20221;-47
2022/05/13 03:48:04;;;;;;;5.47;5.07;;;18.00;99.90;;;;;;5048946;28;20288;-48
2022/05/13 03:50:32;;;;;;;7.00;6.30;;;18.10;99.90;;;;;;5051955;28;20194;-48
2022/05/13 03:53:00;;;;;;;6.10;5.53;;;18.10;99.90;;;;;;5051283;28;20202;-47
2022/05/13 03:55:27;;;;;;;6.40;5.90;;;18.10;99.90;;;;;;5051182;28;20194;-48
2022/05/13 03:57:55;;;;;;;6.67;6.07;;;18.00;99.90;;;;;;5051177;28;20623;-48
2022/05/13 04:00:23;;;;;;;5.80;5.50;;;18.00;99.90;;;;;;5048623;28;20206;-48
2022/05/13 04:02:50;;;;;;;5.53;5.10;;;18.00;99.90;;;;;;5049488;28;20202;-48
2022/05/13 04:10:46;;;;;;;7.10;6.50;;;18.10;99.90;;;;;;5051933;28;20683;-48
2022/05/13 04:16:08;;;;;;;7.80;7.17;;;18.10;99.90;;;;;;5049480;28;20582;-48
2022/05/13 04:18:37;;;;;;;8.87;8.00;;;18.00;99.90;;;;;;5049418;28;20582;-47
2022/05/13 04:21:06;;;;;;;6.47;6.10;;;18.00;99.90;;;;;;5047498;28;20216;-47
2022/05/13 04:23:34;;;;;;;8.27;7.50;;;18.10;99.90;;;;;;5050987;28;20241;-47
2022/05/13 04:26:01;;;;;;;8.40;7.70;;;18.00;99.90;;;;;;5049811;28;20731;-48
2022/05/13 04:28:30;;;;;;;9.63;8.80;;;18.10;99.90;;;;;;5051384;28;20202;-47
2022/05/13 04:30:59;;;;;;;9.20;8.37;;;18.10;99.90;;;;;;5050587;28;20575;-48
2022/05/13 04:33:26;;;;;;;17.67;9.73;;;18.10;99.90;;;;;;5047762;28;20225;-48
2022/05/13 04:35:54;;;;;;;9.73;8.03;;;18.10;99.90;;;;;;5050440;28;20251;-48
2022/05/13 04:38:21;;;;;;;9.00;8.20;;;18.00;99.90;;;;;;5050381;28;20255;-47
2022/05/13 04:40:48;;;;;;;8.27;7.77;;;18.10;99.90;;;;;;5051515;28;20323;-48
2022/05/13 04:43:14;;;;;;;8.97;7.90;;;18.10;99.90;;;;;;5048299;28;20299;-47
2022/05/13 04:45:43;;;;;;;7.93;7.37;;;18.10;99.90;;;;;;5041571;28;20221;-48
2022/05/13 04:48:17;;;;;;;8.97;8.30;;;18.10;99.90;;;;;;5039870;28;20201;-47
2022/05/13 04:50:48;;;;;;;8.87;8.20;;;18.10;99.90;;;;;;5038750;28;20783;-48
2022/05/13 04:53:19;;;;;;;9.53;8.70;;;18.10;99.90;;;;;;5046072;28;20221;-48
2022/05/13 04:55:46;;;;;;;10.63;9.33;;;18.00;99.90;;;;;;5034680;28;20197;-48
2022/05/13 04:58:13;;;;;;;8.93;8.37;;;18.00;99.90;;;;;;5036034;28;20249;-47
2022/05/13 05:00:40;;;;;;;10.37;9.33;;;18.00;99.90;;;;;;5036955;28;20198;-48
2022/05/13 05:03:08;;;;;;;10.43;9.50;;;18.00;99.90;;;;;;5038038;28;20339;-48
2022/05/13 05:05:35;;;;;;;10.17;9.23;;;18.00;99.90;;;;;;5045050;28;20280;-47
2022/05/13 05:08:03;;;;;;;11.17;9.87;;;18.00;99.90;;;;;;5044019;28;20282;-47
2022/05/13 05:10:30;;;;;;;10.27;9.20;;;18.00;99.90;;;;;;5039913;28;20581;-48
2022/05/13 05:12:58;;;;;;;10.77;9.77;;;18.10;99.90;;;;;;5035264;28;20199;-47
2022/05/13 05:15:27;;;;;;;9.77;8.90;;;18.10;99.90;;;;;;5036804;28;20664;-47
2022/05/13 05:17:55;;;;;;;9.73;8.83;;;18.10;99.90;;;;;;5038115;28;20256;-47
2022/05/13 05:20:23;;;;;;;9.87;9.03;;;18.10;99.90;;;;;;5053868;28;20206;-48
2022/05/13 05:22:51;;;;;;;10.17;9.27;;;18.20;99.90;;;;;;5054630;28;20233;-48
2022/05/13 05:25:20;;;;;;;9.53;8.77;;;18.20;99.90;;;;;;5054752;28;20323;-48
2022/05/13 05:27:48;;;;;;;9.60;8.60;;;18.20;99.90;;;;;;5054847;28;20202;-48
2022/05/13 05:30:16;;;;;;;9.63;8.90;;;18.30;99.90;;;;;;5050550;28;20203;-47
2022/05/13 05:32:44;;;;;;;9.43;8.63;;;18.30;99.90;;;;;;5052479;28;20198;-47
2022/05/13 05:35:15;;;;;;;11.30;7.97;;;18.40;99.90;;;;;;5045469;28;20222;-47
2022/05/13 05:37:43;;;;;;;9.27;8.57;;;18.50;99.90;;;;;;5042010;28;20264;-47
2022/05/13 05:40:11;;;;;;;9.33;8.50;;;18.60;99.90;;;;;;5045279;28;20198;-47
2022/05/13 05:42:39;;;;;;;12.27;9.60;;;18.60;99.90;;;;;;5044688;28;20201;-47
2022/05/13 05:45:08;;;;;;;11.00;10.07;;;18.70;99.90;;;;;;5046811;28;20221;-47
2022/05/13 05:47:36;;;;;;;10.33;9.33;;;18.80;99.90;;;;;;5045874;28;20907;-47
2022/05/13 05:50:04;;;;;;;8.97;8.37;;;18.90;99.90;;;;;;5039596;28;20199;-48
2022/05/13 05:52:31;;;;;;;10.10;9.20;;;19.10;99.90;;;;;;5043437;28;20264;-47
2022/05/13 05:57:57;;;;;;;9.43;8.80;;;19.80;99.90;;;;;;5054300;28;20204;-47
2022/05/13 06:00:25;;;;;;;8.47;7.70;;;20.40;99.90;;;;;;5052988;28;20193;-47
2022/05/13 06:02:52;;;;;;;10.03;9.03;;;20.50;99.90;;;;;;5052318;28;20267;-47
2022/05/13 06:05:19;;;;;;;10.70;9.73;;;20.20;99.90;;;;;;5053761;28;20268;-48
2022/05/13 06:07:47;;;;;;;10.27;9.43;;;20.10;99.90;;;;;;5049339;28;20194;-47
2022/05/13 06:10:15;;;;;;;9.70;8.87;;;20.00;99.90;;;;;;5035997;28;20205;-48
2022/05/13 06:12:43;;;;;;;10.00;8.93;;;19.90;99.90;;;;;;5034190;28;20660;-48
2022/05/13 06:15:11;;;;;;;9.37;8.53;;;19.80;99.90;;;;;;5034521;28;20221;-47
2022/05/13 06:17:43;;;;;;;9.83;8.90;;;19.80;99.90;;;;;;5033236;28;20198;-48
2022/05/13 06:20:11;;;;;;;10.30;9.27;;;19.90;99.90;;;;;;5039773;28;20687;-47
2022/05/13 06:22:38;;;;;;;11.97;7.93;;;19.90;99.90;;;;;;5051658;28;20265;-47
2022/05/13 06:25:07;;;;;;;7.37;6.77;;;19.80;99.90;;;;;;5051368;28;20688;-47
2022/05/13 06:27:37;;;;;;;7.67;7.07;;;19.60;99.90;;;;;;5035257;28;20195;-47
2022/05/13 06:30:05;;;;;;;7.93;7.37;;;19.70;99.90;;;;;;5037564;28;20202;-47
2022/05/13 06:32:32;;;;;;;8.90;8.00;;;19.60;99.90;;;;;;5047437;28;20198;-48
2022/05/13 06:34:59;;;;;;;7.63;7.10;;;19.50;99.90;;;;;;5045153;28;20572;-47
2022/05/13 06:37:26;;;;;;;11.70;7.43;;;19.50;99.90;;;;;;5047372;28;20206;-47
2022/05/13 06:39:53;;;;;;;8.33;7.10;;;19.50;99.90;;;;;;5042488;28;20247;-48
2022/05/13 06:42:20;;;;;;;7.97;7.37;;;19.50;99.90;;;;;;5040698;28;20734;-48
2022/05/13 06:44:49;;;;;;;7.70;7.10;;;19.50;99.90;;;;;;5037510;28;20230;-48
2022/05/13 06:47:16;;;;;;;7.33;6.93;;;19.40;99.90;;;;;;5046052;28;20197;-47
2022/05/13 06:49:43;;;;;;;7.93;7.33;;;19.30;99.90;;;;;;5035850;28;20190;-47
2022/05/13 06:52:13;;;;;;;6.97;6.33;;;19.40;99.90;;;;;;5036332;28;20194;-48
2022/05/13 06:54:40;;;;;;;8.10;7.47;;;19.40;99.90;;;;;;5051185;28;20221;-48
2022/05/13 06:57:07;;;;;;;12.20;7.53;;;19.50;99.90;;;;;;5051019;28;20652;-48
2022/05/13 06:59:34;;;;;;;8.57;7.80;;;19.50;99.90;;;;;;5051186;28;20201;-48
2022/05/13 07:02:03;;;;;;;8.27;7.13;;;19.50;99.90;;;;;;5051091;28;20202;-48
2022/05/13 07:04:30;;;;;;;7.67;7.17;;;19.50;99.90;;;;;;5044054;28;20223;-48
2022/05/13 07:06:59;;;;;;;7.63;6.83;;;19.50;99.90;;;;;;5035569;28;20244;-47
2022/05/13 07:09:26;;;;;;;7.80;7.30;;;19.50;99.90;;;;;;5037547;28;20625;-47
2022/05/13 07:11:54;;;;;;;8.10;7.30;;;19.50;99.90;;;;;;5043662;28;20194;-47
2022/05/13 07:14:21;;;;;;;7.20;6.60;;;19.50;99.90;;;;;;5052890;28;20814;-47
2022/05/13 07:16:51;;;;;;;7.10;6.33;;;19.50;99.90;;;;;;5051710;28;20197;-47
2022/05/13 07:19:20;;;;;;;8.43;7.60;;;19.70;99.90;;;;;;5047039;28;20269;-47
2022/05/13 07:21:47;;;;;;;8.27;7.53;;;19.70;99.90;;;;;;5052459;28;20320;-48
2022/05/13 07:24:14;;;;;;;7.30;6.80;;;19.80;99.90;;;;;;5055756;22;20245;-54
2022/05/13 07:26:45;;;;;;;8.15;7.53;;;19.70;99.90;;;;;;5024571;28;20531;-54
2022/05/13 07:29:12;;;;;;;7.00;6.23;;;19.70;99.90;;;;;;5030417;28;20241;-54
2022/05/13 07:31:39;;;;;;;7.43;6.73;;;19.60;99.90;;;;;;5031365;28;20285;-54
2022/05/13 07:34:07;;;;;;;7.47;6.97;;;19.50;99.90;;;;;;5031861;28;20225;-54
2022/05/13 07:36:36;;;;;;;8.70;8.10;;;19.50;99.90;;;;;;5031804;28;20194;-54
2022/05/13 07:41:51;;;;;;;8.30;7.90;;;19.60;99.90;;;;;;5029788;28;20206;-55
2022/05/13 07:44:18;;;;;;;9.37;8.53;;;19.50;99.90;;;;;;5029017;28;20226;-54
2022/05/13 07:46:45;;;;;;;8.40;7.70;;;19.50;99.90;;;;;;5023144;28;20603;-54
2022/05/13 07:49:13;;;;;;;7.87;7.23;;;19.40;99.90;;;;;;5015516;28;20203;-54
2022/05/13 07:51:41;;;;;;;7.67;7.10;;;19.40;99.90;;;;;;5012837;28;20249;-54
2022/05/13 07:54:08;;;;;;;8.20;7.33;;;19.30;99.90;;;;;;5012065;28;20716;-55
2022/05/13 07:56:35;;;;;;;7.40;6.67;;;19.30;99.90;;;;;;5028431;28;20261;-54
2022/05/13 07:59:02;;;;;;;8.60;7.90;;;19.30;99.90;;;;;;5029799;28;20217;-54
2022/05/13 08:01:29;;;;;;;8.20;7.57;;;19.20;99.90;;;;;;5016022;28;20245;-54
2022/05/13 08:03:57;;;;;;;8.77;8.07;;;19.20;99.90;;;;;;5024618;28;20219;-54
2022/05/13 08:06:24;;;;;;;10.60;9.17;;;19.20;99.90;;;;;;5029518;28;20248;-54
2022/05/13 08:08:56;;;;;;;9.23;8.37;;;19.30;99.90;;;;;;5030931;28;20671;-54
2022/05/13 08:11:24;;;;;;;8.73;7.83;;;19.40;99.90;;;;;;5031359;28;20241;-54
2022/05/13 08:13:52;;;;;;;8.83;7.93;;;19.70;99.90;;;;;;5031424;28;20226;-54
2022/05/13 08:16:20;;;;;;;7.50;7.00;;;20.00;99.90;;;;;;5031262;28;20568;-54
2022/05/13 08:18:49;;;;;;;7.00;6.60;;;20.70;99.90;;;;;;5031300;28;20206;-54
2022/05/13 08:21:15;;;;;;;8.93;6.87;;;21.40;99.90;;;;;;5031028;28;20565;-54
2022/05/13 08:23:43;;;;;;;6.70;6.30;;;22.30;99.90;;;;;;5031000;28;20226;-55
2022/05/13 08:26:11;;;;;;;6.90;6.27;;;23.20;99.90;;;;;;5031111;28;20222;-55
2022/05/13 08:28:39;;;;;;;6.73;6.07;;;23.50;99.90;;;;;;5031097;28;20688;-55
2022/05/13 08:31:06;;;;;;;7.50;6.90;;;23.30;99.90;;;;;;5031126;28;20793;-55
2022/05/13 08:33:33;;;;;;;7.80;7.20;;;22.80;99.90;;;;;;5030876;28;20222;-54
2022/05/13 08:36:02;;;;;;;7.47;6.87;;;22.50;99.90;;;;;;5030768;28;20202;-54
2022/05/13 08:38:32;;;;;;;7.27;6.70;;;22.70;99.90;;;;;;5030954;28;20210;-54
2022/05/13 08:41:17;;;;;;;6.57;6.27;;;22.80;99.90;;;;;;5031152;28;20203;-55
2022/05/13 08:43:46;;;;;;;8.70;8.10;;;22.90;99.90;;;;;;5031021;28;20226;-54
2022/05/13 08:46:21;;;;;;;7.30;6.70;;;22.80;99.90;;;;;;5030957;28;20214;-55
2022/05/13 08:48:55;;;;;;;7.63;7.13;;;22.90;99.90;;;;;;5031265;28;20222;-55
2022/05/13 08:51:30;;;;;;;7.93;7.47;;;22.90;99.90;;;;;;5030317;28;20668;-55
2022/05/13 08:54:06;;;;;;;7.67;6.97;;;22.80;99.90;;;;;;5030819;28;20777;-55
2022/05/13 08:56:36;;;;;;;7.87;7.27;;;22.80;99.90;;;;;;5030894;28;20663;-55
2022/05/13 08:59:09;;;;;;;6.40;6.00;;;22.60;99.90;;;;;;5030908;28;20233;-54
2022/05/13 09:01:41;;;;;;;8.40;7.63;;;22.40;99.90;;;;;;5030694;28;20214;-55
2022/05/13 09:04:13;;;;;;;8.03;7.40;;;22.20;99.90;;;;;;5030894;28;20237;-55
2022/05/13 09:06:47;;;;;;;8.27;7.67;;;22.20;99.90;;;;;;5030679;28;20639;-54
2022/05/13 09:09:14;;;;;;;8.63;7.90;;;22.20;99.90;;;;;;5030314;28;20222;-55
2022/05/13 09:11:49;;;;;;;6.93;6.47;;;22.30;99.90;;;;;;5030528;28;20206;-55
2022/05/13 09:14:27;;;;;;;7.43;7.03;;;22.20;99.90;;;;;;5030971;28;20230;-54
2022/05/13 09:17:10;;;;;;;8.25;7.63;;;22.10;99.90;;;;;;5027507;28;20505;-54
2022/05/13 09:19:44;;;;;;;9.47;7.27;;;22.20;99.90;;;;;;5024664;28;20198;-55
2022/05/13 09:22:12;;;;;;;8.67;8.00;;;22.20;99.90;;;;;;5031830;28;20199;-55
2022/05/13 09:24:39;;;;;;;9.07;7.90;;;21.80;99.90;;;;;;5029003;28;20245;-55
2022/05/13 09:27:08;;;;;;;8.07;7.37;;;21.70;99.90;;;;;;5030286;28;20219;-54
2022/05/13 09:29:40;;;;;;;5.50;5.00;;;21.80;99.90;;;;;;5029620;28;20199;-54
2022/05/13 09:32:13;;;;;;;5.43;5.10;;;21.60;99.90;;;;;;5030017;28;20369;-54
2022/05/13 09:34:49;;;;;;;5.13;4.83;;;21.30;99.90;;;;;;5030587;28;20242;-54
2022/05/13 09:37:21;;;;;;;5.17;4.77;;;21.20;99.90;;;;;;5030368;28;20245;-54
2022/05/13 09:39:50;;;;;;;5.83;5.37;;;21.10;99.90;;;;;;5028180;28;20206;-54
2022/05/13 09:42:27;;;;;;;5.27;4.93;;;21.10;99.90;;;;;;5027898;28;20257;-54
2022/05/13 09:45:15;;;;;;;7.20;6.60;;;21.10;99.90;;;;;;5028933;28;20276;-55
2022/05/13 09:47:43;;;;;;;5.57;5.23;;;21.10;99.90;;;;;;5030363;28;20248;-54
2022/05/13 09:50:22;;;;;;;6.10;5.70;;;21.30;99.90;;;;;;5024092;28;20616;-54
2022/05/13 09:52:51;;;;;;;6.03;5.73;;;21.40;99.90;;;;;;5032607;28;20206;-54
2022/05/13 09:55:26;;;;;;;9.40;7.20;;;21.50;99.90;;;;;;5032670;28;20305;-54
2022/05/13 09:58:00;;;;;;;7.47;6.93;;;21.70;99.90;;;;;;5033508;28;20641;-54
2022/05/13 10:00:31;;;;;;;6.63;6.13;;;21.60;99.90;;;;;;5032144;28;20210;-55
2022/05/13 10:03:17;;;;;;;9.43;7.37;;;21.80;99.90;;;;;;5033594;28;20195;-54
2022/05/13 10:05:44;;;;;;;7.53;6.80;;;21.70;99.90;;;;;;5030773;28;20288;-54
2022/05/13 10:08:17;;;;;;;7.90;7.17;;;21.60;99.90;;;;;;5025505;28;20191;-55
2022/05/13 10:13:59;;;;;;;6.00;5.60;;;21.10;99.90;;;;;;5033469;28;20738;-54
2022/05/13 10:16:34;;;;;;;5.70;5.40;;;21.20;99.90;;;;;;5031907;28;20290;-54
2022/05/13 10:19:07;;;;;;;7.47;6.83;;;21.20;99.90;;;;;;5031525;28;20205;-55
2022/05/13 10:21:40;;;;;;;6.83;5.97;;;21.20;99.90;;;;;;5032913;28;20265;-55
2022/05/13 10:24:18;;;;;;;7.13;6.53;;;21.30;99.90;;;;;;5033119;28;20280;-55
2022/05/13 10:26:52;;;;;;;6.37;5.87;;;21.40;99.90;;;;;;5031914;28;20218;-55
2022/05/13 10:29:25;;;;;;;6.97;6.37;;;21.70;99.90;;;;;;5032548;28;20203;-55
2022/05/13 10:31:52;;;;;;;6.70;6.30;;;21.90;99.90;;;;;;5031724;28;20646;-54
2022/05/13 10:34:25;;;;;;;7.10;6.27;;;22.10;99.90;;;;;;5029197;28;20604;-55
2022/05/13 10:37:00;;;;;;;5.97;5.67;;;22.40;99.90;;;;;;5025992;28;20256;-55
2022/05/13 10:39:37;;;;;;;5.90;5.43;;;22.50;99.90;;;;;;5013120;28;20297;-55
2022/05/13 10:42:10;;;;;;;8.47;7.87;;;22.50;99.90;;;;;;5019369;28;20332;-55
2022/05/13 10:44:46;;;;;;;8.50;7.57;;;22.30;99.90;;;;;;5017916;28;20289;-55
2022/05/13 10:47:17;;;;;;;8.40;7.70;;;22.20;99.90;;;;;;5016101;28;20232;-55
2022/05/13 10:49:45;;;;;;;8.10;7.50;;;21.90;99.90;;;;;;5013446;28;20223;-54
2022/05/13 10:52:27;;;;;;;8.87;7.20;;;21.50;99.90;;;;;;5012252;28;20209;-54
2022/05/13 10:54:58;;;;;;;7.50;6.90;;;21.20;99.90;;;;;;5015533;28;20254;-54
2022/05/13 10:57:34;;;;;;;6.47;6.07;;;21.20;99.90;;;;;;5019765;28;20248;-54
2022/05/13 11:00:12;;;;;;;7.40;6.83;;;21.10;99.90;;;;;;5024754;28;20210;-54
2022/05/13 11:03:14;;;;;;;6.97;6.43;;;21.30;99.90;;;;;;5016089;28;20221;-54
2022/05/13 11:05:54;;;;;;;6.63;6.03;;;21.30;99.90;;;;;;5015413;28;20203;-54
2022/05/13 11:08:26;;;;;;;6.93;6.43;;;21.30;99.90;;;;;;5015935;28;20229;-55
2022/05/13 11:11:00;;;;;;;6.30;6.00;;;21.20;99.90;;;;;;5011908;28;20661;-54
2022/05/13 11:13:42;;;;;;;8.13;7.37;;;21.30;99.90;;;;;;5011584;28;20770;-54
2022/05/13 11:16:19;;;;;;;7.47;6.97;;;21.10;99.90;;;;;;5012079;28;20199;-54
2022/05/13 11:18:55;;;;;;;6.77;6.10;;;20.90;99.90;;;;;;5015788;28;20248;-54
2022/05/13 11:21:33;;;;;;;7.07;6.57;;;20.80;99.90;;;;;;5030005;28;20600;-54
2022/05/13 11:27:01;;;;;;;6.70;6.30;;;20.30;99.90;;;;;;5011602;28;20272;-54
2022/05/13 11:29:37;;;;;;;9.20;6.23;;;20.30;99.90;;;;;;5015583;28;20203;-54
2022/05/13 11:32:24;;;;;;;6.60;6.00;;;20.30;99.90;;;;;;5011701;28;20195;-54
2022/05/13 11:35:21;;;;;;;7.83;5.73;;;20.40;99.90;;;;;;5011491;28;20230;-54
2022/05/13 11:37:55;;;;;;;6.47;5.97;;;20.40;99.90;;;;;;5029353;28;20194;-54
2022/05/13 11:40:29;;;;;;;6.33;5.93;;;20.50;99.90;;;;;;5029680;28;20290;-54
2022/05/13 11:43:20;;;;;;;6.83;5.87;;;20.50;99.90;;;;;;5013445;28;20282;-54
2022/05/13 11:46:20;;;;;;;6.27;5.77;;;20.50;99.90;;;;;;5026123;28;20198;-53
2022/05/13 11:48:52;;;;;;;5.83;5.47;;;20.50;99.90;;;;;;5030446;28;20289;-53
2022/05/13 11:51:24;;;;;;;6.43;5.90;;;20.40;99.90;;;;;;5028726;28;20465;-53
2022/05/13 11:53:54;;;;;;;5.70;5.20;;;20.20;99.90;;;;;;5030588;28;20680;-53
2022/05/13 11:56:33;;;;;;;6.10;5.57;;;20.10;99.90;;;;;;5031221;28;20194;-53
2022/05/13 11:59:03;;;;;;;7.20;4.50;;;19.90;99.90;;;;;;5031442;28;20248;-53
2022/05/13 12:01:53;;;;;;;6.17;5.87;;;19.90;99.90;;;;;;5031289;28;20257;-54
2022/05/13 12:04:31;;;;;;;5.83;5.53;;;20.00;99.90;;;;;;5029933;28;20226;-54
2022/05/13 12:07:00;;;;;;;5.70;5.30;;;20.20;99.90;;;;;;5031060;28;20360;-53
2022/05/13 12:09:31;;;;;;;6.30;5.80;;;20.20;99.90;;;;;;5030914;28;20218;-54
2022/05/13 12:12:09;;;;;;;8.77;5.43;;;20.30;99.90;;;;;;5030973;28;20676;-54
2022/05/13 12:14:44;;;;;;;6.10;5.70;;;20.30;99.90;;;;;;5028152;28;20642;-54
2022/05/13 12:17:18;;;;;;;6.30;5.30;;;20.20;99.90;;;;;;5023118;28;20232;-53
2022/05/13 12:19:56;;;;;;;6.33;4.87;;;20.10;99.90;;;;;;5028906;28;20272;-53
2022/05/13 12:22:48;;;;;;;5.47;4.53;;;20.10;99.90;;;;;;5029591;28;20260;-54
2022/05/13 12:25:44;;;;;;;4.50;3.77;;;20.20;99.90;;;;;;5028634;28;20223;-54
2022/05/13 12:28:22;;;;;;;6.17;4.40;;;20.20;99.90;;;;;;5023042;28;20214;-54
2022/05/13 12:30:51;;;;;;;4.80;4.40;;;20.20;99.90;;;;;;5030874;28;20276;-54
2022/05/13 12:33:36;;;;;;;4.53;4.13;;;20.30;99.90;;;;;;5028195;28;20226;-53
2022/05/13 12:39:08;;;;;;;4.97;4.00;;;20.30;99.90;;;;;;5032416;28;20201;-54
2022/05/13 12:41:54;;;;;;;9.27;6.43;;;20.20;99.90;;;;;;5030694;28;20202;-53
2022/05/13 12:44:34;;;;;;;6.27;5.30;;;20.10;99.90;;;;;;5030020;28;20309;-53
2022/05/13 12:47:23;;;;;;;6.63;5.77;;;20.20;99.90;;;;;;5023976;28;20214;-54
2022/05/13 12:49:58;;;;;;;5.30;4.93;;;20.20;99.90;;;;;;5026443;28;20305;-53
2022/05/13 12:52:38;;;;;;;5.00;4.53;;;20.40;99.90;;;;;;5026279;28;20194;-54
2022/05/13 12:55:12;;;;;;;4.70;4.23;;;20.60;99.90;;;;;;5011045;28;20284;-54
2022/05/13 12:57:43;;;;;;;4.40;4.00;;;20.60;99.90;;;;;;5010710;28;20543;-54
2022/05/13 13:00:13;;;;;;;4.73;4.27;;;20.80;99.90;;;;;;5010350;28;20274;-54
2022/05/13 13:02:43;;;;;;;5.37;5.00;;;20.80;99.90;;;;;;5028477;28;20201;-54
2022/05/13 13:05:16;;;;;;;5.37;5.17;;;20.70;99.90;;;;;;5010463;28;20245;-54
2022/05/13 13:07:45;;;;;;;6.17;5.00;;;20.60;99.90;;;;;;5011630;28;20215;-54
2022/05/13 13:10:17;;;;;;;5.67;5.30;;;20.60;99.90;;;;;;5010318;28;20203;-54
2022/05/13 13:13:01;;;;;;;5.20;4.70;;;20.60;99.90;;;;;;5010485;28;20257;-54
2022/05/13 13:15:33;;;;;;;6.47;5.80;;;20.70;99.90;;;;;;5032961;28;20277;-54
2022/05/13 13:18:02;;;;;;;7.83;5.37;;;20.60;99.90;;;;;;5044948;28;20264;-54
2022/05/13 13:20:31;;;;;;;5.00;4.63;;;20.70;99.90;;;;;;5010479;28;20273;-54
2022/05/13 13:23:03;;;;;;;5.23;5.00;;;20.50;99.90;;;;;;5011531;28;20207;-54
2022/05/13 13:25:34;;;;;;;5.47;5.07;;;20.60;99.90;;;;;;5011577;28;20226;-54
2022/05/13 13:28:03;;;;;;;5.80;5.40;;;20.80;99.90;;;;;;5013896;28;20231;-54